createdAt,value
2022-10-23T00:00:57.016Z,101740.13
2022-10-23T00:04:05.648Z,101749.00
2022-10-23T00:07:10.894Z,101754.69
2022-10-23T00:10:16.819Z,101753.63
2022-10-23T00:13:22.020Z,101746.06
2022-10-23T00:16:29.254Z,101746.63
2022-10-23T00:19:34.865Z,101749.56
2022-10-23T00:22:40.764Z,101749.56
2022-10-23T00:25:46.263Z,101753.41
2022-10-23T00:28:54.558Z,101745.47
2022-10-23T00:32:00.231Z,101746.25
2022-10-23T00:35:06.925Z,101742.50
2022-10-23T00:38:13.338Z,101747.91
2022-10-23T00:41:23.912Z,101754.06
2022-10-23T00:44:29.350Z,101753.84
2022-10-23T00:47:34.681Z,101755.16
2022-10-23T00:50:41.036Z,101748.34
2022-10-23T00:54:01.070Z,101751.34
2022-10-23T00:57:17.387Z,101747.53
2022-10-23T01:00:47.674Z,101747.78
2022-10-23T01:03:53.469Z,101751.00
2022-10-23T01:07:29.295Z,101749.44
2022-10-23T01:10:47.531Z,101752.97
2022-10-23T01:14:11.292Z,101748.09
2022-10-23T01:17:42.482Z,101750.78
2022-10-23T01:21:05.337Z,101754.03
2022-10-23T01:24:24.699Z,101752.66
2022-10-23T01:27:40.337Z,101741.59
2022-10-23T01:30:45.702Z,101738.06
2022-10-23T01:34:00.067Z,101729.97
2022-10-23T01:37:12.771Z,101741.31
2022-10-23T01:40:24.951Z,101737.28
2022-10-23T01:43:45.117Z,101731.34
2022-10-23T01:46:53.031Z,101724.56
2022-10-23T01:50:01.479Z,101730.00
2022-10-23T01:53:08.177Z,101731.25
2022-10-23T01:56:22.949Z,101730.78
2022-10-23T01:59:37.812Z,101721.53
2022-10-23T02:02:48.470Z,101722.56
2022-10-23T02:05:54.245Z,101713.13
2022-10-23T02:08:59.919Z,101713.44
2022-10-23T02:15:40.822Z,101714.66
2022-10-23T02:19:07.896Z,101707.50
2022-10-23T02:22:21.573Z,101715.00
2022-10-23T02:25:43.415Z,101708.19
2022-10-23T02:29:07.689Z,101710.84
2022-10-23T02:32:18.451Z,101720.00
2022-10-23T02:35:26.660Z,101723.19
2022-10-23T02:38:43.788Z,101725.63
2022-10-23T02:42:23.835Z,101723.66
2022-10-23T02:49:17.726Z,101715.56
2022-10-23T02:52:32.586Z,101710.72
2022-10-23T02:56:02.688Z,101709.34
2022-10-23T02:59:28.960Z,101715.53
2022-10-23T03:02:42.957Z,101704.22
2022-10-23T03:05:51.490Z,101709.81
2022-10-23T03:09:05.937Z,101715.91
2022-10-23T03:12:11.879Z,101717.75
2022-10-23T03:15:18.461Z,101709.50
2022-10-23T03:18:24.765Z,101707.56
2022-10-23T03:21:31.417Z,101707.38
2022-10-23T03:24:37.235Z,101717.59
2022-10-23T03:27:43.205Z,101713.03
2022-10-23T03:30:53.493Z,101717.00
2022-10-23T03:33:59.736Z,101722.94
2022-10-23T03:37:05.157Z,101722.25
2022-10-23T03:40:11.211Z,101719.50
2022-10-23T03:43:16.627Z,101721.94
2022-10-23T03:46:21.964Z,101729.34
2022-10-23T03:49:32.289Z,101723.00
2022-10-23T03:52:45.094Z,101715.94
2022-10-23T03:55:51.567Z,101720.81
2022-10-23T03:58:57.114Z,101719.47
2022-10-23T04:02:04.756Z,101733.69
2022-10-23T04:05:11.298Z,101736.78
2022-10-23T04:08:20.181Z,101730.25
2022-10-23T04:11:29.440Z,101725.09
2022-10-23T04:14:34.782Z,101731.22
2022-10-23T04:17:41.886Z,101731.69
2022-10-23T04:20:51.801Z,101730.72
2022-10-23T04:23:57.220Z,101726.84
2022-10-23T04:27:03.561Z,101730.25
2022-10-23T04:30:09.756Z,101738.56
2022-10-23T04:33:16.538Z,101741.03
2022-10-23T04:36:22.115Z,101756.13
2022-10-23T04:39:27.215Z,101763.00
2022-10-23T04:42:31.895Z,101755.56
2022-10-23T04:45:40.516Z,101748.28
2022-10-23T04:48:47.447Z,101752.22
2022-10-23T04:51:58.824Z,101747.09
2022-10-23T04:55:25.993Z,101739.25
2022-10-23T04:58:47.230Z,101749.53
2022-10-23T05:01:52.713Z,101749.47
2022-10-23T05:04:58.527Z,101746.81
2022-10-23T05:08:17.078Z,101738.31
2022-10-23T05:11:42.204Z,101729.41
2022-10-23T05:14:48.076Z,101736.34
2022-10-23T05:17:59.237Z,101740.97
2022-10-23T05:21:15.173Z,101742.69
2022-10-23T05:24:20.334Z,101745.53
2022-10-23T05:27:33.866Z,101742.13
2022-10-23T05:30:41.111Z,101744.75
2022-10-23T05:33:46.546Z,101755.09
2022-10-23T05:36:53.302Z,101747.03
2022-10-23T05:40:01.708Z,101742.13
2022-10-23T05:43:08.461Z,101734.47
2022-10-23T05:46:44.691Z,101744.00
2022-10-23T05:50:15.655Z,101762.09
2022-10-23T05:53:47.024Z,101748.50
2022-10-23T05:57:06.076Z,101750.84
2022-10-23T06:00:21.961Z,101761.63
2022-10-23T06:03:39.417Z,101773.22
2022-10-23T06:06:49.006Z,101774.59
2022-10-23T06:09:55.869Z,101773.94
2022-10-23T06:13:01.210Z,101776.06
2022-10-23T06:16:12.852Z,101782.19
2022-10-23T06:19:18.057Z,101792.53
2022-10-23T06:22:25.536Z,101794.47
2022-10-23T06:25:53.998Z,101790.22
2022-10-23T06:29:04.653Z,101778.16
2022-10-23T06:32:10.283Z,101790.34
2022-10-23T06:35:17.189Z,101785.19
2022-10-23T06:38:23.424Z,101792.34
2022-10-23T06:41:33.570Z,101786.00
2022-10-23T06:44:38.716Z,101776.69
2022-10-23T06:47:51.523Z,101789.03
2022-10-23T06:50:59.904Z,101795.63
2022-10-23T06:54:13.578Z,101796.69
2022-10-23T06:57:37.494Z,101799.63
2022-10-23T07:00:44.817Z,101802.88
2022-10-23T07:03:50.427Z,101810.13
2022-10-23T07:07:00.369Z,101810.06
2022-10-23T07:13:30.293Z,101817.06
2022-10-23T07:16:49.096Z,101835.50
2022-10-23T07:19:54.155Z,101833.78
2022-10-23T07:22:59.141Z,101836.09
2022-10-23T07:26:15.881Z,101839.97
2022-10-23T07:29:23.434Z,101836.56
2022-10-23T07:32:29.314Z,101828.53
2022-10-23T07:35:53.627Z,101840.72
2022-10-23T07:39:05.551Z,101840.69
2022-10-23T07:42:15.290Z,101838.59
2022-10-23T07:45:20.987Z,101838.91
2022-10-23T07:48:27.976Z,101838.44
2022-10-23T07:51:37.057Z,101829.34
2022-10-23T07:54:43.200Z,101835.13
2022-10-23T07:57:57.598Z,101842.28
2022-10-23T08:01:23.777Z,101844.72
2022-10-23T08:04:28.990Z,101859.97
2022-10-23T08:07:42.860Z,101860.88
2022-10-23T08:10:51.371Z,101864.25
2022-10-23T08:14:08.580Z,101863.03
2022-10-23T08:17:14.787Z,101874.09
2022-10-23T08:20:40.674Z,101876.06
2022-10-23T08:23:47.500Z,101874.53
2022-10-23T08:26:53.444Z,101874.06
2022-10-23T08:30:02.554Z,101874.44
2022-10-23T08:33:08.518Z,101872.53
2022-10-23T08:36:20.661Z,101873.66
2022-10-23T08:39:27.365Z,101875.22
2022-10-23T08:43:11.605Z,101869.31
2022-10-23T08:46:35.073Z,101867.72
2022-10-23T08:50:35.353Z,101870.50
2022-10-23T08:53:53.856Z,101865.09
2022-10-23T08:57:16.367Z,101863.25
2022-10-23T09:00:22.046Z,101864.06
2022-10-23T09:03:27.837Z,101856.22
2022-10-23T09:06:45.558Z,101862.16
2022-10-23T09:10:29.606Z,101878.97
2022-10-23T09:14:01.722Z,101866.22
2022-10-23T09:17:30.400Z,101862.16
2022-10-23T09:20:36.679Z,101858.66
2022-10-23T09:23:42.959Z,101856.75
2022-10-23T09:26:51.985Z,101857.06
2022-10-23T09:30:00.599Z,101860.56
2022-10-23T09:33:18.986Z,101856.50
2022-10-23T09:36:30.485Z,101854.59
2022-10-23T09:39:37.448Z,101855.66
2022-10-23T09:43:04.548Z,101859.16
2022-10-23T09:46:12.333Z,101854.31
2022-10-23T09:49:22.748Z,101849.41
2022-10-23T09:52:36.541Z,101854.81
2022-10-23T09:55:42.264Z,101862.38
2022-10-23T09:59:04.888Z,101864.28
2022-10-23T10:02:28.738Z,101869.91
2022-10-23T10:06:04.639Z,101879.97
2022-10-23T10:09:15.935Z,101883.19
2022-10-23T10:12:59.388Z,101875.88
2022-10-23T10:16:11.112Z,101876.94
2022-10-23T10:19:27.643Z,101876.41
2022-10-23T10:22:41.602Z,101883.97
2022-10-23T10:26:02.869Z,101874.19
2022-10-23T10:29:26.319Z,101872.81
2022-10-23T10:32:56.040Z,101877.44
2022-10-23T10:36:31.258Z,101875.28
2022-10-23T10:39:46.625Z,101869.84
2022-10-23T10:43:14.537Z,101869.50
2022-10-23T10:47:07.587Z,101867.84
2022-10-23T10:50:53.555Z,101861.38
2022-10-23T10:54:28.981Z,101852.31
2022-10-23T10:57:40.363Z,101858.78
2022-10-23T11:00:50.942Z,101853.56
2022-10-23T11:04:23.252Z,101844.00
2022-10-23T11:07:38.570Z,101844.00
2022-10-23T11:10:51.434Z,101843.06
2022-10-23T11:13:57.831Z,101848.31
2022-10-23T11:17:27.888Z,101843.91
2022-10-23T11:20:36.334Z,101828.38
2022-10-23T11:24:18.736Z,101823.75
2022-10-23T11:27:52.048Z,101809.66
2022-10-23T11:31:49.834Z,101802.75
2022-10-23T11:35:23.659Z,101798.69
2022-10-23T11:38:32.585Z,101799.09
2022-10-23T11:41:48.048Z,101800.44
2022-10-23T11:44:53.607Z,101802.63
2022-10-23T11:48:18.796Z,101793.44
2022-10-23T11:51:33.220Z,101796.63
2022-10-23T11:54:38.373Z,101793.22
2022-10-23T11:57:47.023Z,101786.03
2022-10-23T12:01:42.071Z,101791.25
2022-10-23T12:04:50.379Z,101794.03
2022-10-23T12:07:59.431Z,101783.28
2022-10-23T12:11:05.848Z,101773.25
2022-10-23T12:14:32.011Z,101783.66
2022-10-23T12:17:40.681Z,101783.63
2022-10-23T12:20:54.999Z,101782.53
2022-10-23T12:24:24.951Z,101780.38
2022-10-23T12:27:46.304Z,101773.38
2022-10-23T12:31:06.445Z,101764.78
2022-10-23T12:35:07.208Z,101766.91
2022-10-23T12:38:23.542Z,101753.91
2022-10-23T12:41:34.410Z,101757.09
2022-10-23T12:44:39.847Z,101750.25
2022-10-23T12:47:47.164Z,101744.78
2022-10-23T12:50:55.936Z,101740.00
2022-10-23T12:54:03.204Z,101738.56
2022-10-23T12:57:30.443Z,101734.19
2022-10-23T13:00:35.926Z,101731.63
2022-10-23T13:03:41.923Z,101728.88
2022-10-23T13:06:49.299Z,101730.38
2022-10-23T13:09:55.631Z,101733.09
2022-10-23T13:13:08.016Z,101721.63
2022-10-23T13:16:27.307Z,101709.72
2022-10-23T13:19:33.072Z,101705.56
2022-10-23T13:22:41.174Z,101702.44
2022-10-23T13:26:04.684Z,101695.22
2022-10-23T13:32:30.919Z,101703.25
2022-10-23T13:35:37.606Z,101700.63
2022-10-23T13:38:46.418Z,101703.63
2022-10-23T13:41:53.026Z,101700.38
2022-10-23T13:44:58.350Z,101710.22
2022-10-23T13:48:09.942Z,101703.69
2022-10-23T13:51:20.417Z,101701.69
2022-10-23T13:57:38.378Z,101699.03
2022-10-23T14:00:47.929Z,101695.06
2022-10-23T14:03:55.189Z,101703.22
2022-10-23T14:07:00.311Z,101697.78
2022-10-23T14:10:06.236Z,101697.84
2022-10-23T14:13:11.447Z,101702.19
2022-10-23T14:16:19.432Z,101709.00
2022-10-23T14:19:24.326Z,101712.81
2022-10-23T14:22:29.792Z,101707.63
2022-10-23T14:25:35.354Z,101698.38
2022-10-23T14:28:41.035Z,101705.94
2022-10-23T14:31:46.594Z,101701.59
2022-10-23T14:34:54.755Z,101702.94
2022-10-23T14:38:00.771Z,101702.69
2022-10-23T14:41:15.559Z,101710.28
2022-10-23T14:44:20.915Z,101707.03
2022-10-23T14:47:26.068Z,101700.50
2022-10-23T14:50:34.389Z,101694.78
2022-10-23T14:53:39.836Z,101702.63
2022-10-23T14:56:45.032Z,101702.47
2022-10-23T14:59:50.396Z,101713.88
2022-10-23T15:02:55.520Z,101709.25
2022-10-23T15:06:00.609Z,101707.56
2022-10-23T15:09:05.843Z,101702.63
2022-10-23T15:12:11.224Z,101701.16
2022-10-23T15:15:16.859Z,101689.69
2022-10-23T15:18:22.828Z,101691.91
2022-10-23T15:21:28.008Z,101694.69
2022-10-23T15:24:33.329Z,101693.13
2022-10-23T15:27:38.616Z,101695.59
2022-10-23T15:30:45.862Z,101695.06
2022-10-23T15:33:51.046Z,101692.94
2022-10-23T15:36:57.604Z,101687.28
2022-10-23T15:40:03.929Z,101685.16
2022-10-23T15:43:12.986Z,101682.72
2022-10-23T15:46:18.394Z,101686.53
2022-10-23T15:49:25.090Z,101686.09
2022-10-23T15:52:30.810Z,101689.72
2022-10-23T15:55:36.480Z,101688.72
2022-10-23T15:58:41.998Z,101694.72
2022-10-23T16:01:48.582Z,101692.13
2022-10-23T16:04:53.399Z,101689.72
2022-10-23T16:07:58.873Z,101694.66
2022-10-23T16:11:05.333Z,101697.75
2022-10-23T16:14:17.428Z,101693.47
2022-10-23T16:17:24.516Z,101690.81
2022-10-23T16:20:30.143Z,101696.59
2022-10-23T16:23:35.765Z,101699.09
2022-10-23T16:26:41.498Z,101693.63
2022-10-23T16:29:47.472Z,101699.09
2022-10-23T16:32:55.203Z,101705.41
2022-10-23T16:36:09.022Z,101704.09
2022-10-23T16:39:36.261Z,101705.22
2022-10-23T16:43:00.863Z,101702.81
2022-10-23T16:46:22.123Z,101704.72
2022-10-23T16:49:30.140Z,101706.91
2022-10-23T16:52:35.609Z,101710.72
2022-10-23T16:55:41.207Z,101718.88
2022-10-23T16:58:47.128Z,101705.84
2022-10-23T17:01:53.702Z,101715.63
2022-10-23T17:04:59.322Z,101721.88
2022-10-23T17:08:05.160Z,101718.09
2022-10-23T17:11:33.205Z,101717.25
2022-10-23T17:14:39.397Z,101724.31
2022-10-23T17:17:44.711Z,101727.31
2022-10-23T17:20:57.628Z,101732.19
2022-10-23T17:27:13.764Z,101737.34
2022-10-23T17:30:19.386Z,101745.75
2022-10-23T17:33:25.694Z,101746.56
2022-10-23T17:36:33.434Z,101749.28
2022-10-23T17:39:40.733Z,101746.56
2022-10-23T17:42:46.315Z,101749.56
2022-10-23T17:45:51.857Z,101752.78
2022-10-23T17:48:59.824Z,101752.00
2022-10-23T17:52:05.316Z,101757.38
2022-10-23T17:55:11.343Z,101761.72
2022-10-23T17:58:16.821Z,101769.84
2022-10-23T18:01:26.125Z,101766.59
2022-10-23T18:04:31.921Z,101766.06
2022-10-23T18:07:37.549Z,101754.34
2022-10-23T18:10:43.338Z,101755.16
2022-10-23T18:13:50.794Z,101746.47
2022-10-23T18:16:56.243Z,101747.03
2022-10-23T18:20:02.339Z,101747.03
2022-10-23T18:23:08.510Z,101752.41
2022-10-23T18:26:22.945Z,101752.44
2022-10-23T18:29:28.476Z,101744.81
2022-10-23T18:32:33.964Z,101744.56
2022-10-23T18:35:39.132Z,101742.38
2022-10-23T18:38:44.804Z,101750.22
2022-10-23T18:41:54.464Z,101745.91
2022-10-23T18:44:59.865Z,101742.38
2022-10-23T18:48:06.844Z,101748.59
2022-10-23T18:51:22.059Z,101743.19
2022-10-23T18:54:27.840Z,101746.97
2022-10-23T18:57:34.380Z,101731.53
2022-10-23T19:00:42.451Z,101732.09
2022-10-23T19:03:48.644Z,101728.84
2022-10-23T19:06:54.542Z,101732.09
2022-10-23T19:10:01.178Z,101736.41
2022-10-23T19:13:07.984Z,101730.22
2022-10-23T19:16:26.977Z,101729.94
2022-10-23T19:19:43.498Z,101735.31
2022-10-23T19:22:53.145Z,101736.13
2022-10-23T19:25:59.138Z,101736.69
2022-10-23T19:29:08.811Z,101739.06
2022-10-23T19:32:15.752Z,101741.50
2022-10-23T19:35:23.119Z,101745.22
2022-10-23T19:38:29.784Z,101751.72
2022-10-23T19:41:36.623Z,101762.81
2022-10-23T19:44:43.256Z,101766.09
2022-10-23T19:47:49.303Z,101762.22
2022-10-23T19:50:55.147Z,101764.91
2022-10-23T19:54:02.140Z,101760.59
2022-10-23T19:57:08.849Z,101766.97
2022-10-23T20:00:17.295Z,101768.41
2022-10-23T20:03:23.712Z,101761.91
2022-10-23T20:06:36.016Z,101761.38
2022-10-23T20:09:43.149Z,101765.88
2022-10-23T20:12:56.554Z,101759.09
2022-10-23T20:16:08.861Z,101761.25
2022-10-23T20:22:27.943Z,101751.75
2022-10-23T20:25:34.089Z,101747.50
2022-10-23T20:28:40.014Z,101754.25
2022-10-23T20:31:45.621Z,101764.22
2022-10-23T20:34:51.085Z,101750.41
2022-10-23T20:37:56.866Z,101758.75
2022-10-23T20:41:06.219Z,101761.75
2022-10-23T20:44:14.277Z,101759.28
2022-10-23T20:47:20.065Z,101767.16
2022-10-23T20:50:25.873Z,101758.25
2022-10-23T20:53:31.977Z,101759.00
2022-10-23T20:56:39.449Z,101761.66
2022-10-23T20:59:45.387Z,101772.66
2022-10-23T21:02:52.536Z,101768.34
2022-10-23T21:06:17.291Z,101762.16
2022-10-23T21:09:22.753Z,101764.41
2022-10-23T21:12:28.448Z,101782.66
2022-10-23T21:15:33.884Z,101785.47
2022-10-23T21:18:45.988Z,101780.94
2022-10-23T21:21:53.071Z,101744.66
2022-10-23T21:25:00.664Z,101757.47
2022-10-23T21:28:07.971Z,101764.00
2022-10-23T21:31:14.044Z,101754.91
2022-10-23T21:34:19.361Z,101758.31
2022-10-23T21:37:25.976Z,101761.78
2022-10-23T21:40:31.474Z,101754.78
2022-10-23T21:43:37.080Z,101745.69
2022-10-23T21:46:42.680Z,101742.16
2022-10-23T21:49:48.251Z,101746.25
2022-10-23T21:52:53.810Z,101732.09
2022-10-23T21:56:05.613Z,101733.00
2022-10-23T21:59:14.118Z,101745.34
2022-10-23T22:02:19.801Z,101735.91
2022-10-23T22:05:25.303Z,101753.22
2022-10-23T22:08:32.187Z,101754.69
2022-10-23T22:11:38.284Z,101742.19
2022-10-23T22:14:43.774Z,101741.41
2022-10-23T22:17:49.217Z,101738.91
2022-10-23T22:21:01.378Z,101731.59
2022-10-23T22:24:08.113Z,101738.09
2022-10-23T22:27:13.647Z,101741.59
2022-10-23T22:30:19.423Z,101743.44
2022-10-23T22:33:25.279Z,101739.25
2022-10-23T22:36:30.545Z,101742.00
2022-10-23T22:39:36.188Z,101734.44
2022-10-23T22:42:41.925Z,101736.66
2022-10-23T22:45:47.580Z,101724.69
2022-10-23T22:48:53.337Z,101718.06
2022-10-23T22:51:59.170Z,101718.06
2022-10-23T22:55:05.215Z,101735.03
2022-10-23T22:58:10.906Z,101726.72
2022-10-23T23:01:30.271Z,101717.16
2022-10-23T23:04:38.216Z,101716.31
2022-10-23T23:07:44.811Z,101715.91
2022-10-23T23:10:55.411Z,101705.47
2022-10-23T23:14:01.459Z,101701.19
2022-10-23T23:17:08.463Z,101685.00
2022-10-23T23:20:13.826Z,101685.38
2022-10-23T23:23:19.994Z,101694.44
2022-10-23T23:26:25.389Z,101699.19
2022-10-23T23:29:31.289Z,101702.97
2022-10-23T23:32:37.329Z,101705.66
2022-10-23T23:35:45.611Z,101701.38
2022-10-23T23:38:52.549Z,101710.84
2022-10-23T23:41:58.024Z,101714.28
2022-10-23T23:45:14.151Z,101707.84
2022-10-23T23:48:20.783Z,101695.34
2022-10-23T23:51:26.402Z,101704.81
2022-10-23T23:54:32.324Z,101707.19
2022-10-23T23:57:38.172Z,101703.44
